sensor_id;sensor_type;location;lat;lon;timestamp;temperature;humidity
24217;DHT22;12356;49.386;8.688;2023-04-30T00:01:34;13.60;48.90
24217;DHT22;12356;49.386;8.688;2023-04-30T00:04:25;13.60;48.80
24217;DHT22;12356;49.386;8.688;2023-04-30T00:07:16;13.60;48.60
24217;DHT22;12356;49.386;8.688;2023-04-30T00:10:09;13.60;46.20
24217;DHT22;12356;49.386;8.688;2023-04-30T00:13:00;13.50;47.40
24217;DHT22;12356;49.386;8.688;2023-04-30T00:15:51;13.50;49.00
24217;DHT22;12356;49.386;8.688;2023-04-30T00:18:42;13.50;47.40
24217;DHT22;12356;49.386;8.688;2023-04-30T00:21:33;13.60;47.10
24217;DHT22;12356;49.386;8.688;2023-04-30T00:24:24;13.50;47.10
24217;DHT22;12356;49.386;8.688;2023-04-30T00:27:15;13.50;48.10
24217;DHT22;12356;49.386;8.688;2023-04-30T00:30:06;13.50;49.40
24217;DHT22;12356;49.386;8.688;2023-04-30T00:32:57;13.60;47.40
24217;DHT22;12356;49.386;8.688;2023-04-30T00:35:48;13.60;47.20
24217;DHT22;12356;49.386;8.688;2023-04-30T00:38:39;13.50;46.20
24217;DHT22;12356;49.386;8.688;2023-04-30T00:41:30;13.50;46.00
24217;DHT22;12356;49.386;8.688;2023-04-30T00:44:21;13.50;46.40
24217;DHT22;12356;49.386;8.688;2023-04-30T00:47:12;13.50;46.80
24217;DHT22;12356;49.386;8.688;2023-04-30T00:50:03;13.50;45.90
24217;DHT22;12356;49.386;8.688;2023-04-30T00:52:55;13.50;45.70
24217;DHT22;12356;49.386;8.688;2023-04-30T00:55:47;13.50;44.60
24217;DHT22;12356;49.386;8.688;2023-04-30T00:58:38;13.50;45.30
24217;DHT22;12356;49.386;8.688;2023-04-30T01:01:31;13.40;45.60
24217;DHT22;12356;49.386;8.688;2023-04-30T01:04:22;13.40;45.90
24217;DHT22;12356;49.386;8.688;2023-04-30T01:07:13;13.40;45.90
24217;DHT22;12356;49.386;8.688;2023-04-30T01:10:05;13.40;43.40
24217;DHT22;12356;49.386;8.688;2023-04-30T01:13:06;13.40;41.30
24217;DHT22;12356;49.386;8.688;2023-04-30T01:25:41;13.50;38.80
24217;DHT22;12356;49.386;8.688;2023-04-30T01:28:35;13.50;39.10
24217;DHT22;12356;49.386;8.688;2023-04-30T01:31:27;13.50;39.70
24217;DHT22;12356;49.386;8.688;2023-04-30T01:34:18;13.50;39.30
24217;DHT22;12356;49.386;8.688;2023-04-30T01:37:28;13.50;39.30
24217;DHT22;12356;49.386;8.688;2023-04-30T01:40:32;13.50;40.70
24217;DHT22;12356;49.386;8.688;2023-04-30T01:43:37;13.50;40.30
24217;DHT22;12356;49.386;8.688;2023-04-30T01:46:30;13.50;41.50
24217;DHT22;12356;49.386;8.688;2023-04-30T01:49:31;13.50;41.50
24217;DHT22;12356;49.386;8.688;2023-04-30T01:52:30;13.50;41.60
24217;DHT22;12356;49.386;8.688;2023-04-30T01:55:42;13.50;43.10
24217;DHT22;12356;49.386;8.688;2023-04-30T01:58:34;13.50;43.00
24217;DHT22;12356;49.386;8.688;2023-04-30T02:01:27;13.40;33.40
24217;DHT22;12356;49.386;8.688;2023-04-30T02:04:18;13.40;30.80
24217;DHT22;12356;49.386;8.688;2023-04-30T02:07:10;13.40;31.20
24217;DHT22;12356;49.386;8.688;2023-04-30T02:10:03;13.30;30.20
24217;DHT22;12356;49.386;8.688;2023-04-30T02:12:54;13.40;31.30
24217;DHT22;12356;49.386;8.688;2023-04-30T02:15:45;13.40;30.60
24217;DHT22;12356;49.386;8.688;2023-04-30T02:18:36;13.40;30.50
24217;DHT22;12356;49.386;8.688;2023-04-30T02:21:27;13.40;29.60
24217;DHT22;12356;49.386;8.688;2023-04-30T02:24:18;13.40;30.10
24217;DHT22;12356;49.386;8.688;2023-04-30T02:27:08;13.40;29.30
24217;DHT22;12356;49.386;8.688;2023-04-30T02:30:00;13.40;29.70
24217;DHT22;12356;49.386;8.688;2023-04-30T02:32:51;13.30;29.30
24217;DHT22;12356;49.386;8.688;2023-04-30T02:35:41;13.30;29.40
24217;DHT22;12356;49.386;8.688;2023-04-30T02:38:32;13.30;29.70
24217;DHT22;12356;49.386;8.688;2023-04-30T02:41:23;13.30;30.90
24217;DHT22;12356;49.386;8.688;2023-04-30T02:44:14;13.30;30.20
24217;DHT22;12356;49.386;8.688;2023-04-30T02:47:05;13.30;28.60
24217;DHT22;12356;49.386;8.688;2023-04-30T02:49:56;13.30;29.60
24217;DHT22;12356;49.386;8.688;2023-04-30T02:52:47;13.30;29.20
24217;DHT22;12356;49.386;8.688;2023-04-30T02:55:37;13.20;29.10
24217;DHT22;12356;49.386;8.688;2023-04-30T02:58:28;13.20;28.50
24217;DHT22;12356;49.386;8.688;2023-04-30T03:01:20;13.20;28.60
24217;DHT22;12356;49.386;8.688;2023-04-30T03:04:11;13.20;28.90
24217;DHT22;12356;49.386;8.688;2023-04-30T03:07:02;13.20;28.70
24217;DHT22;12356;49.386;8.688;2023-04-30T03:09:53;13.10;28.70
24217;DHT22;12356;49.386;8.688;2023-04-30T03:12:44;13.10;28.90
24217;DHT22;12356;49.386;8.688;2023-04-30T03:15:35;13.10;29.30
24217;DHT22;12356;49.386;8.688;2023-04-30T03:18:27;13.20;29.10
24217;DHT22;12356;49.386;8.688;2023-04-30T03:21:18;13.10;28.70
24217;DHT22;12356;49.386;8.688;2023-04-30T03:24:09;13.10;28.90
24217;DHT22;12356;49.386;8.688;2023-04-30T03:27:00;13.10;28.40
24217;DHT22;12356;49.386;8.688;2023-04-30T03:29:51;13.10;29.50
24217;DHT22;12356;49.386;8.688;2023-04-30T03:32:42;13.10;29.50
24217;DHT22;12356;49.386;8.688;2023-04-30T03:35:33;13.00;29.10
24217;DHT22;12356;49.386;8.688;2023-04-30T03:38:24;13.00;29.10
24217;DHT22;12356;49.386;8.688;2023-04-30T03:41:15;13.00;29.60
24217;DHT22;12356;49.386;8.688;2023-04-30T03:44:06;13.00;29.60
24217;DHT22;12356;49.386;8.688;2023-04-30T03:47:04;13.00;29.40
24217;DHT22;12356;49.386;8.688;2023-04-30T03:49:55;13.00;29.70
24217;DHT22;12356;49.386;8.688;2023-04-30T03:52:46;13.10;29.50
24217;DHT22;12356;49.386;8.688;2023-04-30T03:55:37;13.10;29.30
24217;DHT22;12356;49.386;8.688;2023-04-30T03:58:29;13.10;30.00
24217;DHT22;12356;49.386;8.688;2023-04-30T04:01:20;13.10;29.50
24217;DHT22;12356;49.386;8.688;2023-04-30T04:04:10;13.10;30.00
24217;DHT22;12356;49.386;8.688;2023-04-30T04:07:01;13.00;29.50
24217;DHT22;12356;49.386;8.688;2023-04-30T04:09:53;13.00;29.90
24217;DHT22;12356;49.386;8.688;2023-04-30T04:12:44;13.00;29.90
24217;DHT22;12356;49.386;8.688;2023-04-30T04:15:35;13.00;29.60
24217;DHT22;12356;49.386;8.688;2023-04-30T04:18:26;13.00;29.80
24217;DHT22;12356;49.386;8.688;2023-04-30T04:21:17;13.00;29.90
24217;DHT22;12356;49.386;8.688;2023-04-30T04:24:08;13.00;29.60
24217;DHT22;12356;49.386;8.688;2023-04-30T04:26:59;13.00;30.00
24217;DHT22;12356;49.386;8.688;2023-04-30T04:29:52;13.00;30.00
24217;DHT22;12356;49.386;8.688;2023-04-30T04:32:44;13.00;30.30
24217;DHT22;12356;49.386;8.688;2023-04-30T04:35:40;12.90;30.00
24217;DHT22;12356;49.386;8.688;2023-04-30T04:38:30;12.90;30.10
24217;DHT22;12356;49.386;8.688;2023-04-30T04:41:22;12.90;30.30
24217;DHT22;12356;49.386;8.688;2023-04-30T04:44:13;12.90;30.40
24217;DHT22;12356;49.386;8.688;2023-04-30T04:47:04;12.90;30.00
24217;DHT22;12356;49.386;8.688;2023-04-30T04:49:55;13.00;31.00
24217;DHT22;12356;49.386;8.688;2023-04-30T04:52:46;13.00;30.90
24217;DHT22;12356;49.386;8.688;2023-04-30T04:55:37;13.00;30.30
24217;DHT22;12356;49.386;8.688;2023-04-30T04:58:28;13.10;32.20
24217;DHT22;12356;49.386;8.688;2023-04-30T05:01:19;13.10;31.70
24217;DHT22;12356;49.386;8.688;2023-04-30T05:04:10;13.10;32.90
24217;DHT22;12356;49.386;8.688;2023-04-30T05:07:03;13.10;30.50
24217;DHT22;12356;49.386;8.688;2023-04-30T05:09:54;13.10;30.80
24217;DHT22;12356;49.386;8.688;2023-04-30T05:12:45;13.10;30.00
24217;DHT22;12356;49.386;8.688;2023-04-30T05:15:36;13.10;31.00
24217;DHT22;12356;49.386;8.688;2023-04-30T05:18:27;13.00;30.50
24217;DHT22;12356;49.386;8.688;2023-04-30T05:21:18;13.00;30.20
24217;DHT22;12356;49.386;8.688;2023-04-30T05:24:08;13.00;30.20
24217;DHT22;12356;49.386;8.688;2023-04-30T05:26:59;13.00;30.20
24217;DHT22;12356;49.386;8.688;2023-04-30T05:29:52;13.00;31.00
24217;DHT22;12356;49.386;8.688;2023-04-30T05:32:43;13.00;30.50
24217;DHT22;12356;49.386;8.688;2023-04-30T05:35:40;12.90;31.10
24217;DHT22;12356;49.386;8.688;2023-04-30T05:38:31;13.00;31.60
24217;DHT22;12356;49.386;8.688;2023-04-30T05:41:21;13.00;31.20
24217;DHT22;12356;49.386;8.688;2023-04-30T05:44:12;13.00;30.60
24217;DHT22;12356;49.386;8.688;2023-04-30T05:47:03;13.10;30.90
24217;DHT22;12356;49.386;8.688;2023-04-30T05:49:54;13.10;30.10
24217;DHT22;12356;49.386;8.688;2023-04-30T05:52:45;13.10;30.00
24217;DHT22;12356;49.386;8.688;2023-04-30T05:55:36;13.20;31.10
24217;DHT22;12356;49.386;8.688;2023-04-30T05:58:27;13.10;30.00
24217;DHT22;12356;49.386;8.688;2023-04-30T06:01:19;13.20;30.30
24217;DHT22;12356;49.386;8.688;2023-04-30T06:04:10;13.20;30.10
24217;DHT22;12356;49.386;8.688;2023-04-30T06:07:01;13.20;30.50
24217;DHT22;12356;49.386;8.688;2023-04-30T06:09:52;13.30;30.60
24217;DHT22;12356;49.386;8.688;2023-04-30T06:12:43;13.30;30.00
24217;DHT22;12356;49.386;8.688;2023-04-30T06:15:33;13.30;30.70
24217;DHT22;12356;49.386;8.688;2023-04-30T06:18:24;13.40;30.00
24217;DHT22;12356;49.386;8.688;2023-04-30T06:21:15;13.40;29.50
24217;DHT22;12356;49.386;8.688;2023-04-30T06:24:06;13.50;29.40
24217;DHT22;12356;49.386;8.688;2023-04-30T06:26:57;13.50;31.20
24217;DHT22;12356;49.386;8.688;2023-04-30T06:29:48;13.50;31.80
24217;DHT22;12356;49.386;8.688;2023-04-30T06:32:38;13.60;33.10
24217;DHT22;12356;49.386;8.688;2023-04-30T06:35:29;13.60;35.00
24217;DHT22;12356;49.386;8.688;2023-04-30T06:38:20;13.60;31.70
24217;DHT22;12356;49.386;8.688;2023-04-30T06:41:11;13.70;30.30
24217;DHT22;12356;49.386;8.688;2023-04-30T06:44:02;13.70;30.00
24217;DHT22;12356;49.386;8.688;2023-04-30T06:46:53;13.70;27.50
24217;DHT22;12356;49.386;8.688;2023-04-30T06:49:44;13.80;27.70
24217;DHT22;12356;49.386;8.688;2023-04-30T06:52:35;13.80;27.10
24217;DHT22;12356;49.386;8.688;2023-04-30T06:55:26;13.80;26.90
24217;DHT22;12356;49.386;8.688;2023-04-30T06:58:17;13.90;27.30
24217;DHT22;12356;49.386;8.688;2023-04-30T07:01:09;13.90;27.00
24217;DHT22;12356;49.386;8.688;2023-04-30T07:04:00;14.00;26.50
24217;DHT22;12356;49.386;8.688;2023-04-30T07:06:51;14.10;25.60
24217;DHT22;12356;49.386;8.688;2023-04-30T07:09:42;14.20;26.30
24217;DHT22;12356;49.386;8.688;2023-04-30T07:12:33;14.30;26.50
24217;DHT22;12356;49.386;8.688;2023-04-30T07:15:24;14.40;26.10
24217;DHT22;12356;49.386;8.688;2023-04-30T07:18:15;14.40;25.40
24217;DHT22;12356;49.386;8.688;2023-04-30T07:21:06;14.50;24.60
24217;DHT22;12356;49.386;8.688;2023-04-30T07:23:57;14.60;25.50
24217;DHT22;12356;49.386;8.688;2023-04-30T07:26:48;14.70;23.60
24217;DHT22;12356;49.386;8.688;2023-04-30T07:29:39;14.80;24.60
24217;DHT22;12356;49.386;8.688;2023-04-30T07:32:30;14.90;23.40
24217;DHT22;12356;49.386;8.688;2023-04-30T07:35:21;15.00;23.60
24217;DHT22;12356;49.386;8.688;2023-04-30T07:38:12;15.00;22.10
24217;DHT22;12356;49.386;8.688;2023-04-30T07:41:03;15.20;23.80
24217;DHT22;12356;49.386;8.688;2023-04-30T07:43:54;15.20;22.50
24217;DHT22;12356;49.386;8.688;2023-04-30T07:46:45;15.20;19.70
24217;DHT22;12356;49.386;8.688;2023-04-30T07:49:36;15.10;22.60
24217;DHT22;12356;49.386;8.688;2023-04-30T07:52:27;15.10;22.40
24217;DHT22;12356;49.386;8.688;2023-04-30T07:55:18;15.20;23.00
24217;DHT22;12356;49.386;8.688;2023-04-30T07:58:09;15.30;23.20
24217;DHT22;12356;49.386;8.688;2023-04-30T08:01:00;15.30;22.90
24217;DHT22;12356;49.386;8.688;2023-04-30T08:03:50;15.40;22.80
24217;DHT22;12356;49.386;8.688;2023-04-30T08:06:41;15.40;21.80
24217;DHT22;12356;49.386;8.688;2023-04-30T08:09:32;15.50;21.20
24217;DHT22;12356;49.386;8.688;2023-04-30T08:12:23;15.50;19.20
24217;DHT22;12356;49.386;8.688;2023-04-30T08:15:14;15.50;19.90
24217;DHT22;12356;49.386;8.688;2023-04-30T08:18:05;15.50;16.20
24217;DHT22;12356;49.386;8.688;2023-04-30T08:20:56;15.50;16.50
24217;DHT22;12356;49.386;8.688;2023-04-30T08:23:47;15.50;18.50
24217;DHT22;12356;49.386;8.688;2023-04-30T08:26:37;15.50;19.00
24217;DHT22;12356;49.386;8.688;2023-04-30T08:29:28;15.50;20.60
24217;DHT22;12356;49.386;8.688;2023-04-30T08:32:19;15.50;19.40
24217;DHT22;12356;49.386;8.688;2023-04-30T08:35:10;15.60;17.40
24217;DHT22;12356;49.386;8.688;2023-04-30T08:38:01;15.70;16.70
24217;DHT22;12356;49.386;8.688;2023-04-30T08:41:12;15.70;15.10
24217;DHT22;12356;49.386;8.688;2023-04-30T08:44:04;15.70;15.30
24217;DHT22;12356;49.386;8.688;2023-04-30T08:46:55;15.70;11.30
24217;DHT22;12356;49.386;8.688;2023-04-30T08:49:49;15.70;13.20
24217;DHT22;12356;49.386;8.688;2023-04-30T08:52:42;15.70;10.90
24217;DHT22;12356;49.386;8.688;2023-04-30T08:55:33;15.80;10.90
24217;DHT22;12356;49.386;8.688;2023-04-30T08:58:24;15.80;12.80
24217;DHT22;12356;49.386;8.688;2023-04-30T09:01:15;15.80;12.10
24217;DHT22;12356;49.386;8.688;2023-04-30T09:04:07;15.80;12.00
24217;DHT22;12356;49.386;8.688;2023-04-30T09:06:57;15.90;11.70
24217;DHT22;12356;49.386;8.688;2023-04-30T09:09:52;15.90;12.30
24217;DHT22;12356;49.386;8.688;2023-04-30T09:12:43;15.90;11.90
24217;DHT22;12356;49.386;8.688;2023-04-30T09:15:37;15.90;12.40
24217;DHT22;12356;49.386;8.688;2023-04-30T09:18:28;16.00;14.20
24217;DHT22;12356;49.386;8.688;2023-04-30T09:21:34;16.00;12.60
24217;DHT22;12356;49.386;8.688;2023-04-30T09:24:25;16.20;14.20
24217;DHT22;12356;49.386;8.688;2023-04-30T09:27:18;16.30;13.30
24217;DHT22;12356;49.386;8.688;2023-04-30T09:30:29;16.30;11.40
24217;DHT22;12356;49.386;8.688;2023-04-30T09:33:21;16.40;12.60
24217;DHT22;12356;49.386;8.688;2023-04-30T09:36:12;16.50;9.30
24217;DHT22;12356;49.386;8.688;2023-04-30T09:39:11;16.50;8.80
24217;DHT22;12356;49.386;8.688;2023-04-30T09:42:09;16.50;7.90
24217;DHT22;12356;49.386;8.688;2023-04-30T09:45:00;16.50;8.20
24217;DHT22;12356;49.386;8.688;2023-04-30T09:47:52;16.50;8.20
24217;DHT22;12356;49.386;8.688;2023-04-30T09:50:43;16.40;7.60
24217;DHT22;12356;49.386;8.688;2023-04-30T09:53:37;16.30;7.50
24217;DHT22;12356;49.386;8.688;2023-04-30T09:56:29;16.30;6.80
24217;DHT22;12356;49.386;8.688;2023-04-30T09:59:28;16.30;7.70
24217;DHT22;12356;49.386;8.688;2023-04-30T10:02:21;16.20;7.00
24217;DHT22;12356;49.386;8.688;2023-04-30T10:05:13;16.20;9.30
24217;DHT22;12356;49.386;8.688;2023-04-30T10:08:06;16.20;9.00
24217;DHT22;12356;49.386;8.688;2023-04-30T10:11:05;16.20;7.40
24217;DHT22;12356;49.386;8.688;2023-04-30T10:14:02;16.30;8.30
24217;DHT22;12356;49.386;8.688;2023-04-30T10:17:00;16.40;7.40
24217;DHT22;12356;49.386;8.688;2023-04-30T10:19:57;16.40;7.00
24217;DHT22;12356;49.386;8.688;2023-04-30T10:22:49;16.40;6.60
24217;DHT22;12356;49.386;8.688;2023-04-30T10:25:40;16.40;7.20
24217;DHT22;12356;49.386;8.688;2023-04-30T10:28:31;16.40;7.30
24217;DHT22;12356;49.386;8.688;2023-04-30T10:31:23;16.50;7.80
24217;DHT22;12356;49.386;8.688;2023-04-30T10:34:36;16.50;7.10
24217;DHT22;12356;49.386;8.688;2023-04-30T10:37:41;16.50;7.80
24217;DHT22;12356;49.386;8.688;2023-04-30T10:40:36;16.50;5.70
24217;DHT22;12356;49.386;8.688;2023-04-30T10:43:31;16.50;5.70
24217;DHT22;12356;49.386;8.688;2023-04-30T10:46:23;16.50;7.70
24217;DHT22;12356;49.386;8.688;2023-04-30T10:49:14;16.50;8.90
24217;DHT22;12356;49.386;8.688;2023-04-30T10:52:05;16.50;9.20
24217;DHT22;12356;49.386;8.688;2023-04-30T10:54:56;16.50;8.90
24217;DHT22;12356;49.386;8.688;2023-04-30T10:57:47;16.40;8.10
24217;DHT22;12356;49.386;8.688;2023-04-30T11:00:50;16.40;9.00
24217;DHT22;12356;49.386;8.688;2023-04-30T11:03:42;16.40;7.00
24217;DHT22;12356;49.386;8.688;2023-04-30T11:06:54;16.40;7.50
24217;DHT22;12356;49.386;8.688;2023-04-30T11:09:47;16.50;9.70
24217;DHT22;12356;49.386;8.688;2023-04-30T11:12:40;16.50;6.90
24217;DHT22;12356;49.386;8.688;2023-04-30T11:15:40;16.50;7.40
24217;DHT22;12356;49.386;8.688;2023-04-30T11:18:31;16.50;8.30
24217;DHT22;12356;49.386;8.688;2023-04-30T11:21:22;16.50;8.90
24217;DHT22;12356;49.386;8.688;2023-04-30T11:24:15;16.50;9.10
24217;DHT22;12356;49.386;8.688;2023-04-30T11:27:12;16.50;7.20
24217;DHT22;12356;49.386;8.688;2023-04-30T11:30:09;16.50;6.70
24217;DHT22;12356;49.386;8.688;2023-04-30T11:33:01;16.60;5.60
24217;DHT22;12356;49.386;8.688;2023-04-30T11:35:53;16.60;8.00
24217;DHT22;12356;49.386;8.688;2023-04-30T11:38:45;16.60;7.60
24217;DHT22;12356;49.386;8.688;2023-04-30T11:41:42;16.60;8.80
24217;DHT22;12356;49.386;8.688;2023-04-30T11:44:33;16.60;7.40
24217;DHT22;12356;49.386;8.688;2023-04-30T11:47:24;16.60;7.30
24217;DHT22;12356;49.386;8.688;2023-04-30T11:50:17;16.60;7.90
24217;DHT22;12356;49.386;8.688;2023-04-30T11:53:08;16.60;8.10
24217;DHT22;12356;49.386;8.688;2023-04-30T11:56:02;16.60;6.20
24217;DHT22;12356;49.386;8.688;2023-04-30T11:58:53;16.60;5.50
24217;DHT22;12356;49.386;8.688;2023-04-30T12:01:47;16.60;5.60
24217;DHT22;12356;49.386;8.688;2023-04-30T12:04:38;16.60;6.30
24217;DHT22;12356;49.386;8.688;2023-04-30T12:07:29;16.60;6.80
24217;DHT22;12356;49.386;8.688;2023-04-30T12:10:20;16.70;8.40
24217;DHT22;12356;49.386;8.688;2023-04-30T12:13:14;16.70;9.50
24217;DHT22;12356;49.386;8.688;2023-04-30T12:16:06;16.70;8.90
24217;DHT22;12356;49.386;8.688;2023-04-30T12:18:57;16.70;9.80
24217;DHT22;12356;49.386;8.688;2023-04-30T12:21:48;16.80;6.90
24217;DHT22;12356;49.386;8.688;2023-04-30T12:24:39;16.80;5.70
24217;DHT22;12356;49.386;8.688;2023-04-30T12:27:32;16.80;8.70
24217;DHT22;12356;49.386;8.688;2023-04-30T12:30:25;16.90;9.20
24217;DHT22;12356;49.386;8.688;2023-04-30T12:33:17;17.00;6.40
24217;DHT22;12356;49.386;8.688;2023-04-30T12:36:12;17.00;6.50
24217;DHT22;12356;49.386;8.688;2023-04-30T12:39:14;17.10;5.70
24217;DHT22;12356;49.386;8.688;2023-04-30T12:42:08;17.10;7.50
24217;DHT22;12356;49.386;8.688;2023-04-30T12:45:00;17.10;6.70
24217;DHT22;12356;49.386;8.688;2023-04-30T12:47:52;17.20;5.00
24217;DHT22;12356;49.386;8.688;2023-04-30T12:50:49;17.10;5.30
24217;DHT22;12356;49.386;8.688;2023-04-30T12:53:44;17.20;5.30
24217;DHT22;12356;49.386;8.688;2023-04-30T12:56:35;17.20;7.20
24217;DHT22;12356;49.386;8.688;2023-04-30T12:59:27;17.20;7.30
24217;DHT22;12356;49.386;8.688;2023-04-30T13:02:22;17.30;7.40
24217;DHT22;12356;49.386;8.688;2023-04-30T13:05:14;17.40;5.20
24217;DHT22;12356;49.386;8.688;2023-04-30T13:08:05;17.50;5.30
24217;DHT22;12356;49.386;8.688;2023-04-30T13:10:56;17.60;5.80
24217;DHT22;12356;49.386;8.688;2023-04-30T13:13:46;17.60;5.30
24217;DHT22;12356;49.386;8.688;2023-04-30T13:16:37;17.70;3.50
24217;DHT22;12356;49.386;8.688;2023-04-30T13:19:28;17.60;2.80
24217;DHT22;12356;49.386;8.688;2023-04-30T13:22:19;17.60;6.10
24217;DHT22;12356;49.386;8.688;2023-04-30T13:25:10;17.60;5.30
24217;DHT22;12356;49.386;8.688;2023-04-30T13:28:02;17.50;6.20
24217;DHT22;12356;49.386;8.688;2023-04-30T13:30:53;17.50;3.50
24217;DHT22;12356;49.386;8.688;2023-04-30T13:33:44;17.50;2.70
24217;DHT22;12356;49.386;8.688;2023-04-30T13:36:35;17.50;3.50
24217;DHT22;12356;49.386;8.688;2023-04-30T13:39:26;17.50;3.60
24217;DHT22;12356;49.386;8.688;2023-04-30T13:42:17;17.50;2.40
24217;DHT22;12356;49.386;8.688;2023-04-30T13:45:08;17.50;3.10
24217;DHT22;12356;49.386;8.688;2023-04-30T13:47:59;17.60;3.70
24217;DHT22;12356;49.386;8.688;2023-04-30T13:50:53;17.60;2.50
24217;DHT22;12356;49.386;8.688;2023-04-30T13:53:44;17.60;2.90
24217;DHT22;12356;49.386;8.688;2023-04-30T13:56:35;17.70;3.20
24217;DHT22;12356;49.386;8.688;2023-04-30T13:59:26;17.80;3.90
24217;DHT22;12356;49.386;8.688;2023-04-30T14:02:17;17.80;3.80
24217;DHT22;12356;49.386;8.688;2023-04-30T14:05:08;17.90;4.00
24217;DHT22;12356;49.386;8.688;2023-04-30T14:07:59;17.90;2.60
24217;DHT22;12356;49.386;8.688;2023-04-30T14:10:50;17.90;4.70
24217;DHT22;12356;49.386;8.688;2023-04-30T14:13:41;17.90;3.70
24217;DHT22;12356;49.386;8.688;2023-04-30T14:16:32;17.90;4.30
24217;DHT22;12356;49.386;8.688;2023-04-30T14:19:22;17.90;3.10
24217;DHT22;12356;49.386;8.688;2023-04-30T14:22:13;17.90;4.90
24217;DHT22;12356;49.386;8.688;2023-04-30T14:25:05;17.90;3.80
24217;DHT22;12356;49.386;8.688;2023-04-30T14:27:56;17.90;4.80
24217;DHT22;12356;49.386;8.688;2023-04-30T14:30:47;17.90;4.80
24217;DHT22;12356;49.386;8.688;2023-04-30T14:33:38;17.90;3.20
24217;DHT22;12356;49.386;8.688;2023-04-30T14:36:29;17.90;4.50
24217;DHT22;12356;49.386;8.688;2023-04-30T14:39:20;18.00;3.90
24217;DHT22;12356;49.386;8.688;2023-04-30T14:42:11;18.00;4.30
24217;DHT22;12356;49.386;8.688;2023-04-30T14:45:02;18.00;3.90
24217;DHT22;12356;49.386;8.688;2023-04-30T14:47:53;18.00;5.40
24217;DHT22;12356;49.386;8.688;2023-04-30T14:50:44;18.00;5.00
24217;DHT22;12356;49.386;8.688;2023-04-30T14:53:35;18.10;3.70
24217;DHT22;12356;49.386;8.688;2023-04-30T14:56:27;18.20;4.30
24217;DHT22;12356;49.386;8.688;2023-04-30T14:59:18;18.30;3.90
24217;DHT22;12356;49.386;8.688;2023-04-30T15:02:08;18.30;3.70
24217;DHT22;12356;49.386;8.688;2023-04-30T15:05:05;18.30;3.90
24217;DHT22;12356;49.386;8.688;2023-04-30T15:07:56;18.30;3.80
24217;DHT22;12356;49.386;8.688;2023-04-30T15:10:47;18.30;2.80
24217;DHT22;12356;49.386;8.688;2023-04-30T15:13:38;18.30;2.30
24217;DHT22;12356;49.386;8.688;2023-04-30T15:16:29;18.30;1.40
24217;DHT22;12356;49.386;8.688;2023-04-30T15:19:20;18.30;3.60
24217;DHT22;12356;49.386;8.688;2023-04-30T15:22:11;18.30;4.50
24217;DHT22;12356;49.386;8.688;2023-04-30T15:25:02;18.30;4.70
24217;DHT22;12356;49.386;8.688;2023-04-30T15:27:53;18.20;3.00
24217;DHT22;12356;49.386;8.688;2023-04-30T15:30:44;18.20;2.60
24217;DHT22;12356;49.386;8.688;2023-04-30T15:33:36;18.20;2.80
24217;DHT22;12356;49.386;8.688;2023-04-30T15:36:31;18.20;2.20
24217;DHT22;12356;49.386;8.688;2023-04-30T15:39:22;18.30;1.00
24217;DHT22;12356;49.386;8.688;2023-04-30T15:42:13;18.20;1.00
24217;DHT22;12356;49.386;8.688;2023-04-30T15:45:05;18.20;1.00
24217;DHT22;12356;49.386;8.688;2023-04-30T15:47:55;18.20;1.00
24217;DHT22;12356;49.386;8.688;2023-04-30T15:50:49;18.10;1.00
24217;DHT22;12356;49.386;8.688;2023-04-30T15:53:40;18.20;1.00
24217;DHT22;12356;49.386;8.688;2023-04-30T15:56:31;18.20;2.30
24217;DHT22;12356;49.386;8.688;2023-04-30T15:59:23;18.20;3.60
24217;DHT22;12356;49.386;8.688;2023-04-30T16:02:14;18.20;3.40
24217;DHT22;12356;49.386;8.688;2023-04-30T16:05:05;18.20;3.40
24217;DHT22;12356;49.386;8.688;2023-04-30T16:07:56;18.20;3.70
24217;DHT22;12356;49.386;8.688;2023-04-30T16:10:47;18.10;3.10
24217;DHT22;12356;49.386;8.688;2023-04-30T16:13:38;18.10;2.40
24217;DHT22;12356;49.386;8.688;2023-04-30T16:16:29;18.00;1.00
24217;DHT22;12356;49.386;8.688;2023-04-30T16:19:20;18.10;1.30
24217;DHT22;12356;49.386;8.688;2023-04-30T16:22:11;18.10;1.00
24217;DHT22;12356;49.386;8.688;2023-04-30T16:25:02;18.10;1.00
24217;DHT22;12356;49.386;8.688;2023-04-30T16:27:53;18.10;1.00
24217;DHT22;12356;49.386;8.688;2023-04-30T16:30:51;18.00;1.00
24217;DHT22;12356;49.386;8.688;2023-04-30T16:33:43;18.00;1.70
24217;DHT22;12356;49.386;8.688;2023-04-30T16:36:33;18.00;1.30
24217;DHT22;12356;49.386;8.688;2023-04-30T16:39:25;18.00;1.30
24217;DHT22;12356;49.386;8.688;2023-04-30T16:42:16;17.90;2.20
24217;DHT22;12356;49.386;8.688;2023-04-30T16:45:07;17.90;2.20
24217;DHT22;12356;49.386;8.688;2023-04-30T16:47:58;17.90;1.50
24217;DHT22;12356;49.386;8.688;2023-04-30T16:50:49;17.80;3.80
24217;DHT22;12356;49.386;8.688;2023-04-30T16:53:40;17.70;1.00
24217;DHT22;12356;49.386;8.688;2023-04-30T16:56:31;17.80;1.00
24217;DHT22;12356;49.386;8.688;2023-04-30T16:59:23;17.80;1.00
24217;DHT22;12356;49.386;8.688;2023-04-30T17:02:14;17.80;1.00
24217;DHT22;12356;49.386;8.688;2023-04-30T17:05:06;17.80;1.00
24217;DHT22;12356;49.386;8.688;2023-04-30T17:07:57;17.70;1.00
24217;DHT22;12356;49.386;8.688;2023-04-30T17:10:48;17.70;1.00
24217;DHT22;12356;49.386;8.688;2023-04-30T17:13:38;17.70;1.00
24217;DHT22;12356;49.386;8.688;2023-04-30T17:16:29;17.70;1.00
24217;DHT22;12356;49.386;8.688;2023-04-30T17:19:20;17.70;1.70
24217;DHT22;12356;49.386;8.688;2023-04-30T17:22:11;17.70;1.00
24217;DHT22;12356;49.386;8.688;2023-04-30T17:25:03;17.70;2.40
24217;DHT22;12356;49.386;8.688;2023-04-30T17:27:54;17.60;2.00
24217;DHT22;12356;49.386;8.688;2023-04-30T17:30:45;17.60;2.90
24217;DHT22;12356;49.386;8.688;2023-04-30T17:33:36;17.50;5.20
24217;DHT22;12356;49.386;8.688;2023-04-30T17:36:27;17.50;3.10
24217;DHT22;12356;49.386;8.688;2023-04-30T17:39:18;17.50;5.20
24217;DHT22;12356;49.386;8.688;2023-04-30T17:42:09;17.40;5.70
24217;DHT22;12356;49.386;8.688;2023-04-30T17:45:00;17.40;6.10
24217;DHT22;12356;49.386;8.688;2023-04-30T17:47:51;17.30;8.40
24217;DHT22;12356;49.386;8.688;2023-04-30T17:50:42;17.30;9.10
24217;DHT22;12356;49.386;8.688;2023-04-30T17:53:34;17.30;8.80
24217;DHT22;12356;49.386;8.688;2023-04-30T17:56:27;17.20;10.30
24217;DHT22;12356;49.386;8.688;2023-04-30T17:59:19;17.10;8.70
24217;DHT22;12356;49.386;8.688;2023-04-30T18:02:10;17.10;8.60
24217;DHT22;12356;49.386;8.688;2023-04-30T18:05:00;17.00;7.90
24217;DHT22;12356;49.386;8.688;2023-04-30T18:07:51;17.00;8.40
24217;DHT22;12356;49.386;8.688;2023-04-30T18:10:42;17.00;9.50
24217;DHT22;12356;49.386;8.688;2023-04-30T18:13:33;16.90;11.30
24217;DHT22;12356;49.386;8.688;2023-04-30T18:16:24;16.90;12.90
24217;DHT22;12356;49.386;8.688;2023-04-30T18:19:15;16.80;15.50
24217;DHT22;12356;49.386;8.688;2023-04-30T18:22:07;16.80;14.50
24217;DHT22;12356;49.386;8.688;2023-04-30T18:24:58;16.70;15.70